Pede Vento — CRLZ9 — position and weather

sailwx.info

Track history (hours):
 
Tides and Currents Weather Stations Pressure Air Temp Water Temp Dewpoint Dewpoint Depression Visibility Wind Speed Wind Dir Waves Ship Positions

Pede Vento

Last reported at 2017-Feb-12 15:33 UTC. Time now 2017-Feb-23 02:26 UTC.
Position N 38°42' W 009°10'.
Warning: this ship's position is 10 days out of date.

Length 12 m.

Type: Sailing vessel. MMSI: 263819560.

Date/timePositionNaut miles runAvg speedWind from/ knotsBaromVisibWave heightAir tempDewpointWater temp
2017-Feb-12 15:33N 38°42' W 009°10'3 2.7
2017-Feb-12 14:33N 38°42' W 009°06'1 0.5
2017-Feb-12 13:33N 38°42' W 009°06'1 1.2
2017-Feb-12 12:29N 38°41' W 009°07'1 0.5
2017-Feb-12 11:15N 38°42' W 009°08'1 0.1
2017-Feb-11 15:32N 38°41' W 009°06'1 1.2
2017-Feb-11 14:32N 38°41' W 009°08'1 0.6
2017-Feb-11 13:28N 38°41' W 009°07'0 0.5
2017-Feb-11 12:33N 38°41' W 009°07'1 0.8
2017-Feb-11 11:28N 38°42' W 009°08'  
Track history (hours):
 
Tides and Currents Weather Stations Pressure Air Temp Water Temp Dewpoint Dewpoint Depression Visibility Wind Speed Wind Dir Waves Ship Positions

Pede Vento

Last reported at 2017-Feb-12 15:33 UTC. Time now 2017-Feb-23 02:26 UTC.
Position N 38°42' W 009°10'.
Warning: this ship's position is 10 days out of date.

Length 12 m.

Type: Sailing vessel. MMSI: 263819560.

Date/timePositionNaut miles runAvg speedWind from/ knotsBaromVisibWave heightAir tempDewpointWater temp
2017-Feb-12 15:33N 38°42' W 009°10'3 2.7
2017-Feb-12 14:33N 38°42' W 009°06'1 0.5
2017-Feb-12 13:33N 38°42' W 009°06'1 1.2
2017-Feb-12 12:29N 38°41' W 009°07'1 0.5
2017-Feb-12 11:15N 38°42' W 009°08'1 0.1
2017-Feb-11 15:32N 38°41' W 009°06'1 1.2
2017-Feb-11 14:32N 38°41' W 009°08'1 0.6
2017-Feb-11 13:28N 38°41' W 009°07'0 0.5
2017-Feb-11 12:33N 38°41' W 009°07'1 0.8
2017-Feb-11 11:28N 38°42' W 009°08'  

Dump ship's entire track history